sensor_id;sensor_type;location;lat;lon;timestamp;P1;durP1;ratioP1;P2;durP2;ratioP2
76962;SDS011;65902;51.452;7.198;2023-05-19T00:00:14;9.50;;;8.52;;
76962;SDS011;65902;51.452;7.198;2023-05-19T00:01:15;7.28;;;4.85;;
76962;SDS011;65902;51.452;7.198;2023-05-19T00:02:18;8.23;;;5.82;;
76962;SDS011;65902;51.452;7.198;2023-05-19T00:03:19;6.95;;;4.85;;
76962;SDS011;65902;51.452;7.198;2023-05-19T00:04:20;8.80;;;5.72;;
76962;SDS011;65902;51.452;7.198;2023-05-19T00:05:21;6.22;;;5.63;;
76962;SDS011;65902;51.452;7.198;2023-05-19T00:06:23;7.00;;;6.30;;
76962;SDS011;65902;51.452;7.198;2023-05-19T00:07:24;10.15;;;5.43;;
76962;SDS011;65902;51.452;7.198;2023-05-19T00:08:29;7.38;;;5.53;;
76962;SDS011;65902;51.452;7.198;2023-05-19T00:09:30;9.50;;;6.70;;
76962;SDS011;65902;51.452;7.198;2023-05-19T00:10:30;8.20;;;5.43;;
76962;SDS011;65902;51.452;7.198;2023-05-19T00:11:33;9.43;;;4.70;;
76962;SDS011;65902;51.452;7.198;2023-05-19T00:12:36;6.72;;;4.47;;
76962;SDS011;65902;51.452;7.198;2023-05-19T00:13:37;8.15;;;5.35;;
76962;SDS011;65902;51.452;7.198;2023-05-19T00:14:37;8.80;;;5.35;;
76962;SDS011;65902;51.452;7.198;2023-05-19T00:15:38;6.85;;;6.25;;
76962;SDS011;65902;51.452;7.198;2023-05-19T00:16:39;6.63;;;5.88;;
76962;SDS011;65902;51.452;7.198;2023-05-19T00:17:42;9.40;;;8.55;;
76962;SDS011;65902;51.452;7.198;2023-05-19T00:18:43;10.15;;;5.75;;
76962;SDS011;65902;51.452;7.198;2023-05-19T00:19:44;8.05;;;5.88;;
76962;SDS011;65902;51.452;7.198;2023-05-19T00:20:45;7.47;;;6.07;;
76962;SDS011;65902;51.452;7.198;2023-05-19T00:21:45;9.85;;;5.25;;
76962;SDS011;65902;51.452;7.198;2023-05-19T00:22:45;7.72;;;6.25;;
76962;SDS011;65902;51.452;7.198;2023-05-19T00:23:46;7.32;;;5.13;;
76962;SDS011;65902;51.452;7.198;2023-05-19T00:24:47;9.38;;;5.38;;
76962;SDS011;65902;51.452;7.198;2023-05-19T00:25:48;10.13;;;5.38;;
76962;SDS011;65902;51.452;7.198;2023-05-19T00:26:48;9.48;;;8.73;;
76962;SDS011;65902;51.452;7.198;2023-05-19T00:27:48;7.90;;;5.38;;
76962;SDS011;65902;51.452;7.198;2023-05-19T00:28:49;6.57;;;5.50;;
76962;SDS011;65902;51.452;7.198;2023-05-19T00:29:50;9.23;;;5.40;;
76962;SDS011;65902;51.452;7.198;2023-05-19T00:30:50;7.82;;;4.85;;
76962;SDS011;65902;51.452;7.198;2023-05-19T00:31:51;7.85;;;4.72;;
76962;SDS011;65902;51.452;7.198;2023-05-19T00:32:51;7.18;;;5.35;;
76962;SDS011;65902;51.452;7.198;2023-05-19T00:33:52;7.72;;;5.07;;
76962;SDS011;65902;51.452;7.198;2023-05-19T00:34:53;10.25;;;5.10;;
76962;SDS011;65902;51.452;7.198;2023-05-19T00:35:53;7.10;;;5.10;;
76962;SDS011;65902;51.452;7.198;2023-05-19T00:36:55;7.18;;;5.65;;
76962;SDS011;65902;51.452;7.198;2023-05-19T00:37:55;7.95;;;5.35;;
76962;SDS011;65902;51.452;7.198;2023-05-19T00:38:56;7.13;;;6.03;;
76962;SDS011;65902;51.452;7.198;2023-05-19T00:39:56;12.43;;;6.43;;
76962;SDS011;65902;51.452;7.198;2023-05-19T00:40:59;10.30;;;6.10;;
76962;SDS011;65902;51.452;7.198;2023-05-19T00:41:59;7.70;;;6.93;;
76962;SDS011;65902;51.452;7.198;2023-05-19T00:43:00;7.18;;;6.22;;
76962;SDS011;65902;51.452;7.198;2023-05-19T00:44:01;8.25;;;5.75;;
76962;SDS011;65902;51.452;7.198;2023-05-19T00:45:02;7.20;;;5.95;;
76962;SDS011;65902;51.452;7.198;2023-05-19T00:46:03;8.07;;;6.55;;
76962;SDS011;65902;51.452;7.198;2023-05-19T00:47:04;7.13;;;6.47;;
76962;SDS011;65902;51.452;7.198;2023-05-19T00:48:04;9.07;;;6.28;;
76962;SDS011;65902;51.452;7.198;2023-05-19T00:49:05;10.55;;;5.97;;
76962;SDS011;65902;51.452;7.198;2023-05-19T00:50:05;7.63;;;6.05;;
76962;SDS011;65902;51.452;7.198;2023-05-19T00:51:05;9.35;;;6.47;;
76962;SDS011;65902;51.452;7.198;2023-05-19T00:52:06;7.07;;;6.22;;
76962;SDS011;65902;51.452;7.198;2023-05-19T00:53:06;7.95;;;4.93;;
76962;SDS011;65902;51.452;7.198;2023-05-19T00:54:08;9.18;;;5.90;;
76962;SDS011;65902;51.452;7.198;2023-05-19T00:55:09;8.20;;;6.57;;
76962;SDS011;65902;51.452;7.198;2023-05-19T00:56:11;7.40;;;6.03;;
76962;SDS011;65902;51.452;7.198;2023-05-19T00:57:12;9.55;;;6.10;;
76962;SDS011;65902;51.452;7.198;2023-05-19T00:58:13;6.75;;;6.07;;
76962;SDS011;65902;51.452;7.198;2023-05-19T00:59:13;9.30;;;7.03;;
76962;SDS011;65902;51.452;7.198;2023-05-19T01:00:14;7.78;;;5.97;;
76962;SDS011;65902;51.452;7.198;2023-05-19T01:01:15;6.88;;;5.63;;
76962;SDS011;65902;51.452;7.198;2023-05-19T01:02:16;10.65;;;5.95;;
76962;SDS011;65902;51.452;7.198;2023-05-19T01:03:17;6.70;;;6.03;;
76962;SDS011;65902;51.452;7.198;2023-05-19T01:04:20;8.23;;;6.70;;
76962;SDS011;65902;51.452;7.198;2023-05-19T01:05:21;9.88;;;6.38;;
76962;SDS011;65902;51.452;7.198;2023-05-19T01:06:22;7.97;;;5.65;;
76962;SDS011;65902;51.452;7.198;2023-05-19T01:07:24;8.50;;;6.40;;
76962;SDS011;65902;51.452;7.198;2023-05-19T01:08:24;7.35;;;5.90;;
76962;SDS011;65902;51.452;7.198;2023-05-19T01:09:25;7.00;;;6.18;;
76962;SDS011;65902;51.452;7.198;2023-05-19T01:10:26;6.57;;;5.75;;
76962;SDS011;65902;51.452;7.198;2023-05-19T01:11:26;6.80;;;5.95;;
76962;SDS011;65902;51.452;7.198;2023-05-19T01:12:27;8.38;;;5.28;;
76962;SDS011;65902;51.452;7.198;2023-05-19T01:13:28;7.50;;;5.13;;
76962;SDS011;65902;51.452;7.198;2023-05-19T01:14:28;8.75;;;6.22;;
76962;SDS011;65902;51.452;7.198;2023-05-19T01:15:35;10.45;;;8.25;;
76962;SDS011;65902;51.452;7.198;2023-05-19T01:16:39;7.82;;;6.97;;
76962;SDS011;65902;51.452;7.198;2023-05-19T01:18:44;8.73;;;6.63;;
76962;SDS011;65902;51.452;7.198;2023-05-19T01:19:52;7.40;;;6.00;;
76962;SDS011;65902;51.452;7.198;2023-05-19T01:21:29;11.88;;;7.18;;
76962;SDS011;65902;51.452;7.198;2023-05-19T01:31:34;9.30;;;5.38;;
76962;SDS011;65902;51.452;7.198;2023-05-19T01:32:36;7.78;;;6.53;;
76962;SDS011;65902;51.452;7.198;2023-05-19T01:34:41;11.70;;;6.85;;
76962;SDS011;65902;51.452;7.198;2023-05-19T01:35:42;8.80;;;6.13;;
76962;SDS011;65902;51.452;7.198;2023-05-19T01:36:44;7.38;;;6.68;;
76962;SDS011;65902;51.452;7.198;2023-05-19T01:37:50;11.93;;;10.80;;
76962;SDS011;65902;51.452;7.198;2023-05-19T01:38:52;10.43;;;9.43;;
76962;SDS011;65902;51.452;7.198;2023-05-19T01:39:54;8.98;;;5.97;;
76962;SDS011;65902;51.452;7.198;2023-05-19T01:40:55;7.15;;;5.78;;
76962;SDS011;65902;51.452;7.198;2023-05-19T01:41:57;8.23;;;5.78;;
76962;SDS011;65902;51.452;7.198;2023-05-19T01:42:59;8.40;;;6.10;;
76962;SDS011;65902;51.452;7.198;2023-05-19T01:44:00;10.95;;;6.15;;
76962;SDS011;65902;51.452;7.198;2023-05-19T01:45:01;10.52;;;7.90;;
76962;SDS011;65902;51.452;7.198;2023-05-19T01:46:02;8.15;;;6.95;;
76962;SDS011;65902;51.452;7.198;2023-05-19T01:47:02;9.23;;;5.75;;
76962;SDS011;65902;51.452;7.198;2023-05-19T01:48:03;12.43;;;7.95;;
76962;SDS011;65902;51.452;7.198;2023-05-19T01:49:04;10.75;;;7.38;;
76962;SDS011;65902;51.452;7.198;2023-05-19T01:50:07;8.52;;;6.18;;
76962;SDS011;65902;51.452;7.198;2023-05-19T01:51:08;13.90;;;5.82;;
76962;SDS011;65902;51.452;7.198;2023-05-19T01:52:09;10.57;;;6.93;;
76962;SDS011;65902;51.452;7.198;2023-05-19T01:53:10;9.60;;;6.32;;
76962;SDS011;65902;51.452;7.198;2023-05-19T01:54:10;7.35;;;6.25;;
76962;SDS011;65902;51.452;7.198;2023-05-19T01:55:10;8.90;;;5.80;;
76962;SDS011;65902;51.452;7.198;2023-05-19T01:56:11;8.13;;;6.88;;
76962;SDS011;65902;51.452;7.198;2023-05-19T01:57:19;8.50;;;6.68;;
76962;SDS011;65902;51.452;7.198;2023-05-19T02:01:51;7.60;;;6.03;;
76962;SDS011;65902;51.452;7.198;2023-05-19T02:05:16;9.82;;;6.70;;
76962;SDS011;65902;51.452;7.198;2023-05-19T02:07:30;11.27;;;6.90;;
76962;SDS011;65902;51.452;7.198;2023-05-19T02:08:56;8.82;;;5.93;;
76962;SDS011;65902;51.452;7.198;2023-05-19T02:10:03;9.00;;;7.47;;
76962;SDS011;65902;51.452;7.198;2023-05-19T02:11:22;10.65;;;6.57;;
76962;SDS011;65902;51.452;7.198;2023-05-19T02:12:31;9.73;;;6.35;;
76962;SDS011;65902;51.452;7.198;2023-05-19T02:13:33;10.70;;;6.45;;
76962;SDS011;65902;51.452;7.198;2023-05-19T02:14:38;8.57;;;6.43;;
76962;SDS011;65902;51.452;7.198;2023-05-19T02:15:39;9.07;;;5.97;;
76962;SDS011;65902;51.452;7.198;2023-05-19T02:16:42;11.25;;;10.20;;
76962;SDS011;65902;51.452;7.198;2023-05-19T02:17:44;6.88;;;5.90;;
76962;SDS011;65902;51.452;7.198;2023-05-19T02:18:51;9.25;;;6.53;;
76962;SDS011;65902;51.452;7.198;2023-05-19T02:19:53;8.82;;;5.75;;
76962;SDS011;65902;51.452;7.198;2023-05-19T02:20:54;12.30;;;6.13;;
76962;SDS011;65902;51.452;7.198;2023-05-19T02:21:55;8.45;;;7.68;;
76962;SDS011;65902;51.452;7.198;2023-05-19T02:22:55;9.15;;;5.95;;
76962;SDS011;65902;51.452;7.198;2023-05-19T02:23:56;9.55;;;5.97;;
76962;SDS011;65902;51.452;7.198;2023-05-19T02:24:57;11.73;;;6.70;;
76962;SDS011;65902;51.452;7.198;2023-05-19T02:25:57;8.50;;;7.70;;
76962;SDS011;65902;51.452;7.198;2023-05-19T02:26:58;11.15;;;6.75;;
76962;SDS011;65902;51.452;7.198;2023-05-19T02:27:59;8.13;;;7.10;;
76962;SDS011;65902;51.452;7.198;2023-05-19T02:28:59;10.35;;;6.18;;
76962;SDS011;65902;51.452;7.198;2023-05-19T02:30:01;9.75;;;6.55;;
76962;SDS011;65902;51.452;7.198;2023-05-19T02:31:02;9.90;;;8.90;;
76962;SDS011;65902;51.452;7.198;2023-05-19T02:32:04;8.05;;;5.90;;
76962;SDS011;65902;51.452;7.198;2023-05-19T02:33:06;9.75;;;5.95;;
76962;SDS011;65902;51.452;7.198;2023-05-19T02:34:07;12.02;;;7.00;;
76962;SDS011;65902;51.452;7.198;2023-05-19T02:35:07;9.15;;;7.13;;
76962;SDS011;65902;51.452;7.198;2023-05-19T02:36:08;13.30;;;10.35;;
76962;SDS011;65902;51.452;7.198;2023-05-19T02:37:08;9.18;;;6.75;;
76962;SDS011;65902;51.452;7.198;2023-05-19T02:38:09;8.18;;;5.60;;
76962;SDS011;65902;51.452;7.198;2023-05-19T02:39:10;10.00;;;5.97;;
76962;SDS011;65902;51.452;7.198;2023-05-19T02:40:10;7.00;;;5.85;;
76962;SDS011;65902;51.452;7.198;2023-05-19T02:41:11;6.28;;;5.68;;
76962;SDS011;65902;51.452;7.198;2023-05-19T02:42:11;10.05;;;6.45;;
76962;SDS011;65902;51.452;7.198;2023-05-19T02:43:13;9.98;;;7.50;;
76962;SDS011;65902;51.452;7.198;2023-05-19T02:44:14;13.32;;;6.70;;
76962;SDS011;65902;51.452;7.198;2023-05-19T02:45:15;11.35;;;7.25;;
76962;SDS011;65902;51.452;7.198;2023-05-19T02:46:16;9.02;;;6.30;;
76962;SDS011;65902;51.452;7.198;2023-05-19T02:47:17;11.32;;;7.43;;
76962;SDS011;65902;51.452;7.198;2023-05-19T02:48:17;7.82;;;7.00;;
76962;SDS011;65902;51.452;7.198;2023-05-19T02:49:18;9.57;;;6.13;;
76962;SDS011;65902;51.452;7.198;2023-05-19T02:50:18;10.35;;;6.15;;
76962;SDS011;65902;51.452;7.198;2023-05-19T02:51:19;8.00;;;6.13;;
76962;SDS011;65902;51.452;7.198;2023-05-19T02:52:20;9.95;;;7.65;;
76962;SDS011;65902;51.452;7.198;2023-05-19T02:53:21;9.68;;;6.53;;
76962;SDS011;65902;51.452;7.198;2023-05-19T02:54:22;9.10;;;5.85;;
76962;SDS011;65902;51.452;7.198;2023-05-19T02:55:22;8.90;;;6.25;;
76962;SDS011;65902;51.452;7.198;2023-05-19T02:56:23;8.75;;;5.95;;
76962;SDS011;65902;51.452;7.198;2023-05-19T02:57:24;8.88;;;7.05;;
76962;SDS011;65902;51.452;7.198;2023-05-19T02:58:25;9.07;;;5.75;;
76962;SDS011;65902;51.452;7.198;2023-05-19T02:59:25;9.68;;;6.70;;
76962;SDS011;65902;51.452;7.198;2023-05-19T03:00:26;7.85;;;6.57;;
76962;SDS011;65902;51.452;7.198;2023-05-19T03:01:26;9.85;;;6.80;;
76962;SDS011;65902;51.452;7.198;2023-05-19T03:02:27;9.73;;;5.95;;
76962;SDS011;65902;51.452;7.198;2023-05-19T03:03:28;8.75;;;5.55;;
76962;SDS011;65902;51.452;7.198;2023-05-19T03:04:29;13.45;;;10.02;;
76962;SDS011;65902;51.452;7.198;2023-05-19T03:05:30;12.52;;;6.25;;
76962;SDS011;65902;51.452;7.198;2023-05-19T03:06:30;11.50;;;5.97;;
76962;SDS011;65902;51.452;7.198;2023-05-19T03:07:31;10.23;;;9.25;;
76962;SDS011;65902;51.452;7.198;2023-05-19T03:08:33;10.60;;;6.28;;
76962;SDS011;65902;51.452;7.198;2023-05-19T03:09:34;11.57;;;6.55;;
76962;SDS011;65902;51.452;7.198;2023-05-19T03:10:34;11.00;;;6.03;;
76962;SDS011;65902;51.452;7.198;2023-05-19T03:11:35;9.43;;;5.72;;
76962;SDS011;65902;51.452;7.198;2023-05-19T03:12:35;10.30;;;6.35;;
76962;SDS011;65902;51.452;7.198;2023-05-19T03:13:35;9.07;;;6.20;;
76962;SDS011;65902;51.452;7.198;2023-05-19T03:14:37;10.02;;;5.47;;
76962;SDS011;65902;51.452;7.198;2023-05-19T03:15:38;9.15;;;7.40;;
76962;SDS011;65902;51.452;7.198;2023-05-19T03:16:39;7.75;;;5.70;;
76962;SDS011;65902;51.452;7.198;2023-05-19T03:17:42;9.20;;;6.55;;
76962;SDS011;65902;51.452;7.198;2023-05-19T03:18:43;7.63;;;5.45;;
76962;SDS011;65902;51.452;7.198;2023-05-19T03:19:43;13.30;;;6.68;;
76962;SDS011;65902;51.452;7.198;2023-05-19T03:20:43;12.65;;;6.97;;
76962;SDS011;65902;51.452;7.198;2023-05-19T03:21:44;7.68;;;6.25;;
76962;SDS011;65902;51.452;7.198;2023-05-19T03:22:45;12.48;;;5.65;;
76962;SDS011;65902;51.452;7.198;2023-05-19T03:23:46;9.23;;;6.47;;
76962;SDS011;65902;51.452;7.198;2023-05-19T03:24:46;9.82;;;6.35;;
76962;SDS011;65902;51.452;7.198;2023-05-19T03:25:50;8.18;;;6.10;;
76962;SDS011;65902;51.452;7.198;2023-05-19T03:26:53;8.73;;;6.18;;
76962;SDS011;65902;51.452;7.198;2023-05-19T03:27:53;10.02;;;9.10;;
76962;SDS011;65902;51.452;7.198;2023-05-19T03:28:54;7.90;;;7.00;;
76962;SDS011;65902;51.452;7.198;2023-05-19T03:29:54;9.68;;;6.70;;
76962;SDS011;65902;51.452;7.198;2023-05-19T03:30:55;6.80;;;5.70;;
76962;SDS011;65902;51.452;7.198;2023-05-19T03:31:55;10.40;;;5.88;;
76962;SDS011;65902;51.452;7.198;2023-05-19T03:32:56;9.90;;;6.05;;
76962;SDS011;65902;51.452;7.198;2023-05-19T03:33:56;9.65;;;6.47;;
76962;SDS011;65902;51.452;7.198;2023-05-19T03:34:57;8.20;;;7.10;;
76962;SDS011;65902;51.452;7.198;2023-05-19T03:35:57;8.07;;;6.40;;
76962;SDS011;65902;51.452;7.198;2023-05-19T03:36:58;13.15;;;6.47;;
76962;SDS011;65902;51.452;7.198;2023-05-19T03:37:59;13.27;;;9.43;;
76962;SDS011;65902;51.452;7.198;2023-05-19T03:38:59;8.40;;;6.25;;
76962;SDS011;65902;51.452;7.198;2023-05-19T03:40:00;8.07;;;6.50;;
76962;SDS011;65902;51.452;7.198;2023-05-19T03:41:01;7.47;;;6.32;;
76962;SDS011;65902;51.452;7.198;2023-05-19T03:42:02;10.93;;;7.45;;
76962;SDS011;65902;51.452;7.198;2023-05-19T03:43:03;10.07;;;6.72;;
76962;SDS011;65902;51.452;7.198;2023-05-19T03:44:03;8.00;;;6.80;;
76962;SDS011;65902;51.452;7.198;2023-05-19T03:45:04;10.20;;;6.53;;
76962;SDS011;65902;51.452;7.198;2023-05-19T03:46:04;9.10;;;7.38;;
76962;SDS011;65902;51.452;7.198;2023-05-19T03:47:05;9.50;;;6.55;;
76962;SDS011;65902;51.452;7.198;2023-05-19T03:48:06;11.40;;;7.50;;
76962;SDS011;65902;51.452;7.198;2023-05-19T03:49:06;11.77;;;6.43;;
76962;SDS011;65902;51.452;7.198;2023-05-19T03:50:07;7.60;;;6.07;;
76962;SDS011;65902;51.452;7.198;2023-05-19T03:51:08;10.52;;;6.97;;
76962;SDS011;65902;51.452;7.198;2023-05-19T03:52:09;8.90;;;6.75;;
76962;SDS011;65902;51.452;7.198;2023-05-19T03:53:10;9.40;;;6.93;;
76962;SDS011;65902;51.452;7.198;2023-05-19T03:54:11;11.63;;;6.82;;
76962;SDS011;65902;51.452;7.198;2023-05-19T03:55:12;10.00;;;7.03;;
76962;SDS011;65902;51.452;7.198;2023-05-19T03:56:14;10.43;;;6.40;;
76962;SDS011;65902;51.452;7.198;2023-05-19T03:57:16;12.45;;;7.75;;
76962;SDS011;65902;51.452;7.198;2023-05-19T03:58:17;10.90;;;6.85;;
76962;SDS011;65902;51.452;7.198;2023-05-19T03:59:18;8.60;;;7.47;;
76962;SDS011;65902;51.452;7.198;2023-05-19T04:00:18;10.00;;;7.40;;
76962;SDS011;65902;51.452;7.198;2023-05-19T04:01:19;11.15;;;7.55;;
76962;SDS011;65902;51.452;7.198;2023-05-19T04:02:19;10.80;;;6.78;;
76962;SDS011;65902;51.452;7.198;2023-05-19T04:03:20;14.68;;;13.27;;
76962;SDS011;65902;51.452;7.198;2023-05-19T04:04:21;8.82;;;6.22;;
76962;SDS011;65902;51.452;7.198;2023-05-19T04:05:22;11.85;;;7.35;;
76962;SDS011;65902;51.452;7.198;2023-05-19T04:06:22;13.38;;;12.13;;
76962;SDS011;65902;51.452;7.198;2023-05-19T04:07:23;8.90;;;6.63;;
76962;SDS011;65902;51.452;7.198;2023-05-19T04:08:23;8.82;;;6.88;;
76962;SDS011;65902;51.452;7.198;2023-05-19T04:09:24;9.23;;;7.13;;
76962;SDS011;65902;51.452;7.198;2023-05-19T04:10:24;10.10;;;7.43;;
76962;SDS011;65902;51.452;7.198;2023-05-19T04:11:25;13.02;;;9.52;;
76962;SDS011;65902;51.452;7.198;2023-05-19T04:12:26;12.30;;;9.02;;
76962;SDS011;65902;51.452;7.198;2023-05-19T04:13:26;9.48;;;6.80;;
76962;SDS011;65902;51.452;7.198;2023-05-19T04:14:26;9.88;;;7.35;;
76962;SDS011;65902;51.452;7.198;2023-05-19T04:15:27;10.55;;;9.48;;
76962;SDS011;65902;51.452;7.198;2023-05-19T04:16:27;10.52;;;7.57;;
76962;SDS011;65902;51.452;7.198;2023-05-19T04:17:29;10.20;;;8.68;;
76962;SDS011;65902;51.452;7.198;2023-05-19T04:18:29;9.90;;;6.40;;
76962;SDS011;65902;51.452;7.198;2023-05-19T04:19:31;11.50;;;6.45;;
76962;SDS011;65902;51.452;7.198;2023-05-19T04:20:32;10.38;;;7.18;;
76962;SDS011;65902;51.452;7.198;2023-05-19T04:21:32;11.60;;;7.68;;
76962;SDS011;65902;51.452;7.198;2023-05-19T04:22:33;13.90;;;7.22;;
76962;SDS011;65902;51.452;7.198;2023-05-19T04:23:33;12.05;;;6.95;;
76962;SDS011;65902;51.452;7.198;2023-05-19T04:24:33;9.55;;;6.97;;
76962;SDS011;65902;51.452;7.198;2023-05-19T04:25:34;10.27;;;6.80;;
76962;SDS011;65902;51.452;7.198;2023-05-19T04:26:35;8.48;;;6.45;;
76962;SDS011;65902;51.452;7.198;2023-05-19T04:27:37;11.52;;;6.97;;
76962;SDS011;65902;51.452;7.198;2023-05-19T04:28:39;13.50;;;8.52;;
76962;SDS011;65902;51.452;7.198;2023-05-19T04:29:42;9.43;;;7.45;;
76962;SDS011;65902;51.452;7.198;2023-05-19T04:30:42;9.82;;;8.10;;
76962;SDS011;65902;51.452;7.198;2023-05-19T04:31:45;10.98;;;8.80;;
76962;SDS011;65902;51.452;7.198;2023-05-19T04:32:45;11.15;;;7.50;;
76962;SDS011;65902;51.452;7.198;2023-05-19T04:33:46;10.98;;;7.38;;
76962;SDS011;65902;51.452;7.198;2023-05-19T04:34:47;10.73;;;9.05;;
76962;SDS011;65902;51.452;7.198;2023-05-19T04:35:48;16.45;;;8.43;;
76962;SDS011;65902;51.452;7.198;2023-05-19T04:36:49;11.73;;;8.55;;
76962;SDS011;65902;51.452;7.198;2023-05-19T04:37:50;11.00;;;7.68;;
76962;SDS011;65902;51.452;7.198;2023-05-19T04:38:53;11.63;;;7.95;;
76962;SDS011;65902;51.452;7.198;2023-05-19T04:39:54;14.02;;;7.65;;
76962;SDS011;65902;51.452;7.198;2023-05-19T04:40:55;13.88;;;9.13;;
76962;SDS011;65902;51.452;7.198;2023-05-19T04:41:56;11.23;;;8.35;;
76962;SDS011;65902;51.452;7.198;2023-05-19T04:42:57;14.30;;;8.80;;
76962;SDS011;65902;51.452;7.198;2023-05-19T04:43:58;13.10;;;8.13;;
76962;SDS011;65902;51.452;7.198;2023-05-19T04:44:59;13.15;;;8.93;;
76962;SDS011;65902;51.452;7.198;2023-05-19T04:46:00;13.43;;;8.70;;
76962;SDS011;65902;51.452;7.198;2023-05-19T04:47:01;10.68;;;7.55;;
76962;SDS011;65902;51.452;7.198;2023-05-19T04:48:02;14.80;;;9.25;;
76962;SDS011;65902;51.452;7.198;2023-05-19T04:49:03;9.63;;;8.13;;
76962;SDS011;65902;51.452;7.198;2023-05-19T04:50:04;9.43;;;7.85;;
76962;SDS011;65902;51.452;7.198;2023-05-19T04:51:04;10.55;;;7.75;;
76962;SDS011;65902;51.452;7.198;2023-05-19T04:52:08;9.38;;;8.40;;
76962;SDS011;65902;51.452;7.198;2023-05-19T04:53:12;12.82;;;7.88;;
76962;SDS011;65902;51.452;7.198;2023-05-19T04:54:12;13.60;;;9.35;;
76962;SDS011;65902;51.452;7.198;2023-05-19T04:55:12;14.00;;;9.55;;
76962;SDS011;65902;51.452;7.198;2023-05-19T04:56:13;12.63;;;8.50;;
76962;SDS011;65902;51.452;7.198;2023-05-19T04:57:14;12.43;;;8.55;;
76962;SDS011;65902;51.452;7.198;2023-05-19T04:58:15;15.85;;;8.38;;
76962;SDS011;65902;51.452;7.198;2023-05-19T04:59:16;11.52;;;9.02;;
76962;SDS011;65902;51.452;7.198;2023-05-19T05:00:16;16.95;;;9.82;;
76962;SDS011;65902;51.452;7.198;2023-05-19T05:01:17;14.52;;;8.82;;
76962;SDS011;65902;51.452;7.198;2023-05-19T05:02:20;13.93;;;9.57;;
76962;SDS011;65902;51.452;7.198;2023-05-19T05:03:21;12.73;;;8.32;;
76962;SDS011;65902;51.452;7.198;2023-05-19T05:04:25;13.23;;;9.07;;
76962;SDS011;65902;51.452;7.198;2023-05-19T05:05:26;11.90;;;8.68;;
76962;SDS011;65902;51.452;7.198;2023-05-19T05:06:27;13.13;;;9.40;;
76962;SDS011;65902;51.452;7.198;2023-05-19T05:07:28;12.82;;;9.43;;
76962;SDS011;65902;51.452;7.198;2023-05-19T05:08:28;15.13;;;13.68;;
76962;SDS011;65902;51.452;7.198;2023-05-19T05:09:29;16.27;;;9.68;;
76962;SDS011;65902;51.452;7.198;2023-05-19T05:10:29;12.60;;;10.48;;
76962;SDS011;65902;51.452;7.198;2023-05-19T05:11:30;12.65;;;9.85;;
76962;SDS011;65902;51.452;7.198;2023-05-19T05:12:31;16.73;;;10.55;;
76962;SDS011;65902;51.452;7.198;2023-05-19T05:13:31;11.90;;;9.55;;
76962;SDS011;65902;51.452;7.198;2023-05-19T05:14:32;12.48;;;10.55;;
76962;SDS011;65902;51.452;7.198;2023-05-19T05:15:32;11.70;;;9.43;;
76962;SDS011;65902;51.452;7.198;2023-05-19T05:16:33;12.82;;;10.13;;
76962;SDS011;65902;51.452;7.198;2023-05-19T05:17:34;11.77;;;8.85;;
76962;SDS011;65902;51.452;7.198;2023-05-19T05:18:35;13.82;;;10.15;;
76962;SDS011;65902;51.452;7.198;2023-05-19T05:19:38;15.70;;;14.15;;
76962;SDS011;65902;51.452;7.198;2023-05-19T05:20:39;13.68;;;9.45;;
76962;SDS011;65902;51.452;7.198;2023-05-19T05:21:40;13.27;;;8.52;;
76962;SDS011;65902;51.452;7.198;2023-05-19T05:22:40;11.45;;;9.95;;
76962;SDS011;65902;51.452;7.198;2023-05-19T05:23:41;10.32;;;9.05;;
76962;SDS011;65902;51.452;7.198;2023-05-19T05:24:42;14.68;;;9.57;;
76962;SDS011;65902;51.452;7.198;2023-05-19T05:25:43;12.90;;;8.18;;
76962;SDS011;65902;51.452;7.198;2023-05-19T05:26:44;15.82;;;9.07;;
76962;SDS011;65902;51.452;7.198;2023-05-19T05:27:45;13.05;;;9.38;;
76962;SDS011;65902;51.452;7.198;2023-05-19T05:28:46;15.52;;;8.75;;
76962;SDS011;65902;51.452;7.198;2023-05-19T05:29:47;13.35;;;8.65;;
76962;SDS011;65902;51.452;7.198;2023-05-19T05:30:47;11.57;;;9.00;;
76962;SDS011;65902;51.452;7.198;2023-05-19T05:31:48;10.68;;;9.15;;
76962;SDS011;65902;51.452;7.198;2023-05-19T05:32:49;12.75;;;9.77;;
76962;SDS011;65902;51.452;7.198;2023-05-19T05:33:50;14.98;;;8.85;;
76962;SDS011;65902;51.452;7.198;2023-05-19T05:34:51;14.85;;;10.93;;
76962;SDS011;65902;51.452;7.198;2023-05-19T05:35:51;11.48;;;8.00;;
76962;SDS011;65902;51.452;7.198;2023-05-19T05:36:52;17.30;;;9.38;;
76962;SDS011;65902;51.452;7.198;2023-05-19T05:37:52;11.93;;;8.95;;
76962;SDS011;65902;51.452;7.198;2023-05-19T05:38:52;12.18;;;10.52;;
76962;SDS011;65902;51.452;7.198;2023-05-19T05:39:53;13.35;;;9.27;;
76962;SDS011;65902;51.452;7.198;2023-05-19T05:40:54;16.30;;;9.10;;
76962;SDS011;65902;51.452;7.198;2023-05-19T05:41:54;12.63;;;8.73;;
76962;SDS011;65902;51.452;7.198;2023-05-19T05:42:55;13.35;;;9.25;;
76962;SDS011;65902;51.452;7.198;2023-05-19T05:43:55;11.88;;;8.70;;
76962;SDS011;65902;51.452;7.198;2023-05-19T05:44:56;15.32;;;9.57;;
76962;SDS011;65902;51.452;7.198;2023-05-19T05:45:56;13.82;;;8.82;;
76962;SDS011;65902;51.452;7.198;2023-05-19T05:46:57;13.20;;;9.90;;
76962;SDS011;65902;51.452;7.198;2023-05-19T05:47:58;13.35;;;10.63;;
76962;SDS011;65902;51.452;7.198;2023-05-19T05:48:59;17.20;;;10.68;;
76962;SDS011;65902;51.452;7.198;2023-05-19T05:49:59;13.20;;;10.00;;
76962;SDS011;65902;51.452;7.198;2023-05-19T05:51:00;14.85;;;9.32;;
76962;SDS011;65902;51.452;7.198;2023-05-19T05:52:01;13.80;;;10.88;;
76962;SDS011;65902;51.452;7.198;2023-05-19T05:53:02;12.55;;;9.73;;
76962;SDS011;65902;51.452;7.198;2023-05-19T05:54:05;14.50;;;9.10;;
76962;SDS011;65902;51.452;7.198;2023-05-19T05:55:05;12.48;;;8.63;;
76962;SDS011;65902;51.452;7.198;2023-05-19T05:56:08;14.85;;;8.75;;
76962;SDS011;65902;51.452;7.198;2023-05-19T05:57:09;11.77;;;8.95;;
76962;SDS011;65902;51.452;7.198;2023-05-19T05:58:09;12.35;;;9.80;;
76962;SDS011;65902;51.452;7.198;2023-05-19T05:59:10;14.75;;;9.00;;
76962;SDS011;65902;51.452;7.198;2023-05-19T06:00:11;9.65;;;8.07;;
76962;SDS011;65902;51.452;7.198;2023-05-19T06:01:15;12.82;;;8.57;;
76962;SDS011;65902;51.452;7.198;2023-05-19T06:02:17;19.88;;;9.10;;
76962;SDS011;65902;51.452;7.198;2023-05-19T06:03:18;11.88;;;9.27;;
76962;SDS011;65902;51.452;7.198;2023-05-19T06:04:20;16.40;;;10.88;;
76962;SDS011;65902;51.452;7.198;2023-05-19T06:05:21;11.70;;;9.50;;
76962;SDS011;65902;51.452;7.198;2023-05-19T06:06:21;15.55;;;12.10;;
76962;SDS011;65902;51.452;7.198;2023-05-19T06:07:21;13.77;;;11.45;;
76962;SDS011;65902;51.452;7.198;2023-05-19T06:08:23;14.00;;;9.25;;
76962;SDS011;65902;51.452;7.198;2023-05-19T06:09:24;12.48;;;8.43;;
76962;SDS011;65902;51.452;7.198;2023-05-19T06:10:24;12.90;;;9.00;;
76962;SDS011;65902;51.452;7.198;2023-05-19T06:11:25;11.63;;;8.40;;
76962;SDS011;65902;51.452;7.198;2023-05-19T06:12:25;11.88;;;8.38;;
76962;SDS011;65902;51.452;7.198;2023-05-19T06:13:26;13.07;;;7.88;;
76962;SDS011;65902;51.452;7.198;2023-05-19T06:14:27;12.15;;;7.60;;
76962;SDS011;65902;51.452;7.198;2023-05-19T06:15:28;11.63;;;8.18;;
76962;SDS011;65902;51.452;7.198;2023-05-19T06:16:28;11.60;;;7.80;;
76962;SDS011;65902;51.452;7.198;2023-05-19T06:17:29;11.05;;;7.70;;
76962;SDS011;65902;51.452;7.198;2023-05-19T06:18:31;16.00;;;6.68;;
76962;SDS011;65902;51.452;7.198;2023-05-19T06:19:32;13.93;;;7.15;;
76962;SDS011;65902;51.452;7.198;2023-05-19T06:20:32;10.57;;;7.00;;
76962;SDS011;65902;51.452;7.198;2023-05-19T06:21:33;11.57;;;7.82;;
76962;SDS011;65902;51.452;7.198;2023-05-19T06:22:34;9.50;;;7.68;;
76962;SDS011;65902;51.452;7.198;2023-05-19T06:23:35;9.68;;;6.57;;
76962;SDS011;65902;51.452;7.198;2023-05-19T06:24:35;10.52;;;7.78;;